createdAt,value
2022-08-08T00:00:54.452Z,42.29
2022-08-08T00:05:22.302Z,41.97
2022-08-08T00:10:49.862Z,41.85
2022-08-08T00:16:01.138Z,42.51
2022-08-08T00:21:07.635Z,43.73
2022-08-08T00:26:13.535Z,44.06
2022-08-08T00:32:28.743Z,42.94
2022-08-08T00:37:03.422Z,42.69
2022-08-08T00:42:42.135Z,43.76
2022-08-08T00:48:30.579Z,44.35
2022-08-08T00:54:18.598Z,43.44
2022-08-08T01:00:00.584Z,43.27
2022-08-08T01:05:58.929Z,44.55
2022-08-08T01:11:56.923Z,44.26
2022-08-08T01:17:51.710Z,45.32
2022-08-08T01:24:05.308Z,44.71
2022-08-08T01:29:06.815Z,44.86
2022-08-08T01:34:52.094Z,46.01
2022-08-08T01:40:06.564Z,46.50
2022-08-08T01:45:34.313Z,47.42
2022-08-08T01:50:55.139Z,45.72
2022-08-08T01:56:28.199Z,46.64
2022-08-08T02:02:00.242Z,46.83
2022-08-08T02:07:13.775Z,46.60
2022-08-08T02:12:26.086Z,48.68
2022-08-08T02:17:36.467Z,46.74
2022-08-08T02:22:57.082Z,47.86
2022-08-08T02:28:03.255Z,47.06
2022-08-08T02:33:21.589Z,46.85
2022-08-08T02:39:01.050Z,47.13
2022-08-08T02:44:57.297Z,46.87
2022-08-08T02:50:34.134Z,47.42
2022-08-08T02:56:22.483Z,47.92
2022-08-08T03:02:19.817Z,46.85
2022-08-08T03:08:02.511Z,47.86
2022-08-08T03:16:00.049Z,48.22
2022-08-08T03:19:51.511Z,46.82
2022-08-08T03:24:59.678Z,48.35
2022-08-08T03:30:07.290Z,48.03
2022-08-08T03:35:12.094Z,49.20
2022-08-08T03:40:29.908Z,48.41
2022-08-08T03:46:06.326Z,48.87
2022-08-08T03:51:01.727Z,47.70
2022-08-08T03:56:09.703Z,48.45
2022-08-08T04:01:23.019Z,48.49
2022-08-08T04:06:30.515Z,47.58
2022-08-08T04:11:58.866Z,48.37
2022-08-08T04:17:57.821Z,49.80
2022-08-08T04:22:51.629Z,48.27
2022-08-08T04:28:03.382Z,48.47
2022-08-08T04:33:21.597Z,48.48
2022-08-08T04:38:26.240Z,48.41
2022-08-08T04:43:45.334Z,48.31
2022-08-08T04:48:55.770Z,49.14
2022-08-08T04:54:38.561Z,47.56
2022-08-08T04:59:29.753Z,47.72
2022-08-08T05:04:34.910Z,47.79
2022-08-08T05:09:38.650Z,46.94
2022-08-08T05:14:44.715Z,46.87
2022-08-08T05:20:09.148Z,46.74
2022-08-08T05:25:21.512Z,46.37
2022-08-08T05:30:28.189Z,45.69
2022-08-08T05:35:36.007Z,45.26
2022-08-08T05:40:47.184Z,46.18
2022-08-08T05:46:03.496Z,45.05
2022-08-08T05:51:15.201Z,45.59
2022-08-08T05:56:21.827Z,44.03
2022-08-08T06:01:55.856Z,43.36
2022-08-08T06:06:53.086Z,43.59
2022-08-08T06:12:01.364Z,42.98
2022-08-08T06:17:07.523Z,43.37
2022-08-08T06:22:42.229Z,42.28
2022-08-08T06:27:53.851Z,42.80
2022-08-08T06:33:04.908Z,43.80
2022-08-08T06:38:21.200Z,41.93
2022-08-08T06:43:37.251Z,41.00
2022-08-08T06:48:50.801Z,40.93
2022-08-08T06:53:56.593Z,43.37
2022-08-08T06:59:12.342Z,42.08
2022-08-08T07:04:38.778Z,41.73
2022-08-08T07:09:59.870Z,40.14
2022-08-08T07:15:23.169Z,39.75
2022-08-08T07:20:45.949Z,40.21
2022-08-08T07:25:57.676Z,37.85
2022-08-08T07:31:04.820Z,36.96
2022-08-08T07:36:11.000Z,37.49
2022-08-08T07:41:24.742Z,37.26
2022-08-08T07:46:30.946Z,37.77
2022-08-08T07:51:53.618Z,36.40
2022-08-08T07:57:08.823Z,36.42
2022-08-08T08:02:33.038Z,35.41
2022-08-08T08:07:46.045Z,34.79
2022-08-08T08:13:20.501Z,34.64
2022-08-08T08:18:52.106Z,33.95
2022-08-08T08:24:02.706Z,34.05
2022-08-08T08:29:07.253Z,34.54
2022-08-08T08:34:21.883Z,31.66
2022-08-08T08:39:59.645Z,32.60
2022-08-08T08:44:57.660Z,31.37
2022-08-08T08:50:08.347Z,31.52
2022-08-08T08:55:41.832Z,31.23
2022-08-08T09:01:09.940Z,31.49
2022-08-08T09:06:26.452Z,30.25
2022-08-08T09:11:47.783Z,29.31
2022-08-08T09:17:11.697Z,28.19
2022-08-08T09:22:19.655Z,28.70
2022-08-08T09:27:57.691Z,29.00
2022-08-08T09:33:54.347Z,26.55
2022-08-08T09:38:32.800Z,27.39
2022-08-08T09:44:06.158Z,27.18
2022-08-08T09:49:41.729Z,26.69
2022-08-08T09:54:44.017Z,26.09
2022-08-08T10:00:21.011Z,26.70
2022-08-08T10:05:31.373Z,26.45
2022-08-08T10:10:38.617Z,26.96
2022-08-08T10:15:59.052Z,24.57
2022-08-08T10:21:26.184Z,25.13
2022-08-08T10:26:59.090Z,23.71
2022-08-08T10:32:22.862Z,23.50
2022-08-08T10:37:30.922Z,22.32
2022-08-08T10:42:44.776Z,23.33
2022-08-08T10:47:55.799Z,23.39
2022-08-08T10:53:02.611Z,22.22
2022-08-08T10:58:10.127Z,22.02
2022-08-08T11:03:17.932Z,21.75
2022-08-08T11:08:37.971Z,22.68
2022-08-08T11:13:51.994Z,20.60
2022-08-08T11:19:33.819Z,20.73
2022-08-08T11:24:38.030Z,20.08
2022-08-08T11:30:18.825Z,20.63
2022-08-08T11:35:27.243Z,21.57
2022-08-08T11:40:35.605Z,21.22
2022-08-08T11:46:06.965Z,20.11
2022-08-08T11:51:39.879Z,19.90
2022-08-08T11:57:14.589Z,19.82
2022-08-08T12:02:49.258Z,20.38
2022-08-08T12:07:57.116Z,19.45
2022-08-08T12:13:05.336Z,19.16
2022-08-08T12:18:18.099Z,19.45
2022-08-08T12:23:43.034Z,19.65
2022-08-08T12:28:55.896Z,19.95
2022-08-08T12:34:02.791Z,18.57
2022-08-08T12:39:08.586Z,18.64
2022-08-08T12:44:30.303Z,18.79
2022-08-08T12:50:04.432Z,18.53
2022-08-08T12:55:14.289Z,18.81
2022-08-08T13:00:39.448Z,19.38
2022-08-08T13:06:04.326Z,18.42
2022-08-08T13:11:20.192Z,18.18
2022-08-08T13:16:26.444Z,18.58
2022-08-08T13:21:48.744Z,17.44
2022-08-08T13:27:11.659Z,16.91
2022-08-08T13:32:16.742Z,19.32
2022-08-08T13:37:51.882Z,20.19
2022-08-08T13:42:48.124Z,18.00
2022-08-08T13:47:58.217Z,20.34
2022-08-08T13:53:02.018Z,19.66
2022-08-08T13:58:28.869Z,20.45
2022-08-08T14:03:53.249Z,19.31
2022-08-08T14:08:58.050Z,21.27
2022-08-08T14:14:39.583Z,22.20
2022-08-08T14:19:55.688Z,22.36
2022-08-08T14:25:07.589Z,21.94
2022-08-08T14:30:18.107Z,22.24
2022-08-08T14:35:23.467Z,22.97
2022-08-08T14:40:29.701Z,21.43
2022-08-08T14:46:02.671Z,22.28
2022-08-08T14:51:05.292Z,22.30
2022-08-08T14:56:10.527Z,21.05
2022-08-08T15:01:23.926Z,22.20
2022-08-08T15:06:31.433Z,22.55
2022-08-08T15:11:43.187Z,23.13
2022-08-08T15:16:51.510Z,24.00
2022-08-08T15:21:54.921Z,21.97
2022-08-08T15:27:12.060Z,22.65
2022-08-08T15:32:30.412Z,22.56
2022-08-08T15:37:34.883Z,23.54
2022-08-08T15:42:38.892Z,22.76
2022-08-08T15:48:05.541Z,22.88
2022-08-08T15:53:08.455Z,22.42
2022-08-08T15:58:14.235Z,22.69
2022-08-08T16:03:19.190Z,22.97
2022-08-08T16:08:22.989Z,24.00
2022-08-08T16:13:34.394Z,24.07
2022-08-08T16:18:56.702Z,24.40
2022-08-08T16:24:02.998Z,24.61
2022-08-08T16:29:09.350Z,25.04
2022-08-08T16:34:14.914Z,25.18
2022-08-08T16:40:01.000Z,26.26
2022-08-08T16:44:54.406Z,26.38
2022-08-08T16:49:59.964Z,26.35
2022-08-08T16:55:33.742Z,27.11
2022-08-08T17:00:29.305Z,26.25
2022-08-08T17:05:44.712Z,25.47
2022-08-08T17:10:57.518Z,25.04
2022-08-08T17:16:02.990Z,25.81
2022-08-08T17:21:11.693Z,25.83
2022-08-08T17:26:15.918Z,26.76
2022-08-08T17:31:44.373Z,25.46
2022-08-08T17:37:01.818Z,25.67
2022-08-08T17:42:07.372Z,26.01
2022-08-08T17:47:10.873Z,27.24
2022-08-08T17:52:23.323Z,27.60
2022-08-08T17:57:28.935Z,26.61
2022-08-08T18:02:39.214Z,27.14
2022-08-08T18:08:15.537Z,26.78
2022-08-08T18:13:09.113Z,27.57
2022-08-08T18:18:28.393Z,27.89
2022-08-08T18:23:35.070Z,27.58
2022-08-08T18:28:54.728Z,28.25
2022-08-08T18:34:12.115Z,28.14
2022-08-08T18:39:27.516Z,28.57
2022-08-08T18:44:35.847Z,28.74
2022-08-08T18:49:54.859Z,28.75
2022-08-08T18:55:10.790Z,29.23
2022-08-08T19:00:20.060Z,29.87
2022-08-08T19:05:24.486Z,30.08
2022-08-08T19:10:37.449Z,31.05
2022-08-08T19:15:44.797Z,31.32
2022-08-08T19:20:48.351Z,31.34
2022-08-08T19:26:19.810Z,31.25
2022-08-08T19:31:17.660Z,31.89
2022-08-08T19:36:28.309Z,32.04
2022-08-08T19:41:34.138Z,32.73
2022-08-08T19:46:38.610Z,33.09
2022-08-08T19:51:43.714Z,33.55
2022-08-08T19:56:50.552Z,34.84
2022-08-08T20:02:03.227Z,35.01
2022-08-08T20:08:28.533Z,36.39
2022-08-08T20:12:36.886Z,37.06
2022-08-08T20:17:41.842Z,36.21
2022-08-08T20:22:45.742Z,36.53
2022-08-08T20:28:07.904Z,36.27
2022-08-08T20:38:31.908Z,38.04
2022-08-08T20:43:43.803Z,37.22
2022-08-08T20:48:52.042Z,38.76
2022-08-08T20:53:59.233Z,37.47
2022-08-08T20:59:09.159Z,40.12
2022-08-08T21:04:14.156Z,38.66
2022-08-08T21:09:17.993Z,39.65
2022-08-08T21:14:33.576Z,38.97
2022-08-08T21:19:45.648Z,39.75
2022-08-08T21:24:52.822Z,40.34
2022-08-08T21:30:03.854Z,41.13
2022-08-08T21:36:14.844Z,40.94
2022-08-08T21:40:34.984Z,40.39
2022-08-08T21:48:01.632Z,40.21
2022-08-08T21:51:04.923Z,39.29
2022-08-08T21:56:29.494Z,40.27
2022-08-08T22:01:41.349Z,41.19
2022-08-08T22:06:48.667Z,40.17
2022-08-08T22:12:08.884Z,40.96
2022-08-08T22:17:16.524Z,41.40
2022-08-08T22:22:28.801Z,42.23
2022-08-08T22:27:39.035Z,41.31
2022-08-08T22:33:00.147Z,40.88
2022-08-08T22:38:03.737Z,40.96
2022-08-08T22:43:07.665Z,41.09
2022-08-08T22:48:13.818Z,41.05
2022-08-08T22:54:31.460Z,42.76
2022-08-08T22:58:40.958Z,43.15
2022-08-08T23:03:53.879Z,43.31
2022-08-08T23:09:00.371Z,42.60
2022-08-08T23:14:04.046Z,44.26
2022-08-08T23:19:10.068Z,43.55
2022-08-08T23:24:22.564Z,43.35
2022-08-08T23:29:29.716Z,44.20
2022-08-08T23:34:36.720Z,44.22
2022-08-08T23:39:49.436Z,44.49
2022-08-08T23:44:59.155Z,44.41
2022-08-08T23:50:05.471Z,45.03
2022-08-08T23:55:19.426Z,45.22
